Time;durP1;ratioP1;P1;durP2;ratioP2;P2;SDS_P1;SDS_P2;PMS_P1;PMS_P2;Temp;Humidity;BMP_temperature;BMP_pressure;BME280_temperature;BME280_humidity;BME280_pressure;Samples;Min_cycle;Max_cycle;Signal;HPM_P1;HPM_P2
2022/06/12 00:01:02;;;;;;;;;;;;;;;13.61;70.39;98484.41;6247953;23;19920;-77
2022/06/12 00:03:28;;;;;;;;;;;;;;;13.66;70.23;98487.47;6196401;23;19954;-76
2022/06/12 00:05:56;;;;;;;;;;;;;;;13.70;69.47;98483.44;6246770;23;20011;-77
2022/06/12 00:08:23;;;;;;;;;;;;;;;13.65;69.29;98490.28;6196191;23;19924;-78
2022/06/12 00:10:50;;;;;;;;;;;;;;;13.63;68.72;98492.31;6196229;23;20302;-78
2022/06/12 00:13:18;;;;;;;;;;;;;;;13.61;68.74;98492.47;6196112;23;19951;-77
2022/06/12 00:15:44;;;;;;;;;;;;;;;13.59;68.49;98489.94;6221260;23;19920;-79
2022/06/12 00:18:10;;;;;;;;;;;;;;;13.69;68.06;98487.13;6196070;23;19926;-79
2022/06/12 00:20:36;;;;;;;;;;;;;;;13.65;68.04;98485.75;6221510;23;19992;-78
2022/06/12 00:23:05;;;;;;;;;;;;;;;13.57;67.81;98483.88;6196538;23;20241;-78
2022/06/12 00:25:31;;;;;;;;;;;;;;;13.48;68.54;98487.56;6196277;23;20093;-79
2022/06/12 00:27:57;;;;;;;;;;;;;;;13.43;68.32;98492.59;6196170;23;19947;-77
2022/06/12 00:30:25;;;;;;;;;;;;;;;13.40;68.64;98487.53;6221307;23;19919;-78
2022/06/12 00:32:52;;;;;;;;;;;;;;;13.35;68.87;98492.53;6196248;23;19927;-78
2022/06/12 00:35:23;;;;;;;;;;;;;;;13.36;68.16;98507.66;6196098;23;19975;-77
2022/06/12 00:37:49;;;;;;;;;;;;;;;13.27;68.22;98493.34;6221453;23;19978;-78
2022/06/12 00:40:14;;;;;;;;;;;;;;;13.30;68.32;98487.66;6247861;23;20335;-78
2022/06/12 00:42:42;;;;;;;;;;;;;;;13.37;67.76;98495.91;6220789;23;19958;-78
2022/06/12 00:45:27;;;;;;;;;;;;;;;13.39;67.38;98501.09;6221386;23;19919;-78
2022/06/12 00:48:01;;;;;;;;;;;;;;;13.30;67.49;98494.88;6196117;23;19915;-78
2022/06/12 00:50:27;;;;;;;;;;;;;;;13.33;67.15;98506.13;6221210;23;19946;-78
2022/06/12 00:52:54;;;;;;;;;;;;;;;13.41;67.06;98505.31;6220936;23;19927;-78
2022/06/12 00:55:38;;;;;;;;;;;;;;;13.47;66.83;98498.47;6220938;23;20245;-78
2022/06/12 00:58:08;;;;;;;;;;;;;;;13.46;66.58;98502.13;6196323;23;19943;-78
2022/06/12 01:00:34;;;;;;;;;;;;;;;13.54;66.08;98504.84;6196145;23;20021;-78
2022/06/12 01:03:00;;;;;;;;;;;;;;;13.44;65.94;98509.53;6171116;23;20343;-77
2022/06/12 01:08:12;;;;;;;;;;;;;;;13.47;65.61;98509.22;6221743;23;19923;-78
2022/06/12 01:10:41;;;;;;;;;;;;;;;13.40;66.12;98513.53;6252597;23;19924;-79
2022/06/12 01:13:13;;;;;;;;;;;;;;;13.51;65.51;98511.41;6201512;23;19919;-79
2022/06/12 01:15:45;;;;;;;;;;;;;;;13.52;65.13;98523.81;6201588;23;19919;-78
2022/06/12 01:18:12;;;;;;;;;;;;;;;13.72;64.93;98519.03;6174961;23;20002;-77
2022/06/12 01:20:43;;;;;;;;;;;;;;;13.74;64.62;98522.41;6196519;23;19926;-79
2022/06/12 01:23:12;;;;;;;;;;;;;;;13.73;64.57;98518.03;6221289;23;20414;-79
2022/06/12 01:25:37;;;;;;;;;;;;;;;13.73;64.56;98520.72;6221067;23;19920;-79
2022/06/12 01:28:06;;;;;;;;;;;;;;;13.73;64.12;98519.88;6219680;23;19976;-79
2022/06/12 01:30:50;;;;;;;;;;;;;;;13.79;64.36;98521.91;6220352;23;19927;-78
2022/06/12 01:33:19;;;;;;;;;;;;;;;13.89;63.81;98519.91;6247093;23;19919;-78
2022/06/12 01:36:05;;;;;;;;;;;;;;;13.74;63.94;98511.66;6247032;23;19919;-78
2022/06/12 01:38:52;;;;;;;;;;;;;;;13.71;63.79;98522.72;6225377;23;19920;-78
2022/06/12 01:41:39;;;;;;;;;;;;;;;13.68;64.03;98514.97;6220732;23;19961;-78
2022/06/12 01:44:11;;;;;;;;;;;;;;;13.69;63.50;98511.31;6244224;23;19946;-78
2022/06/12 01:46:40;;;;;;;;;;;;;;;13.76;63.62;98524.91;6194268;23;20307;-78
2022/06/12 01:49:14;;;;;;;;;;;;;;;13.66;63.70;98524.22;6194326;23;20327;-78
2022/06/12 01:51:48;;;;;;;;;;;;;;;13.70;63.41;98520.22;6219315;23;19919;-78
2022/06/12 01:54:25;;;;;;;;;;;;;;;13.63;63.83;98522.69;6194009;23;19943;-79
2022/06/12 01:56:55;;;;;;;;;;;;;;;13.53;63.74;98519.28;6219152;23;19958;-77
2022/06/12 01:59:24;;;;;;;;;;;;;;;13.55;64.02;98528.03;6244389;23;20002;-77
2022/06/12 02:02:09;;;;;;;;;;;;;;;13.57;64.11;98531.38;6193859;23;19927;-77
2022/06/12 02:04:43;;;;;;;;;;;;;;;13.61;64.04;98516.63;6194173;23;19998;-77
2022/06/12 02:07:16;;;;;;;;;;;;;;;13.83;64.11;98526.78;6194566;23;19919;-77
2022/06/12 02:09:45;;;;;;;;;;;;;;;13.90;63.66;98526.13;6244257;23;20348;-81
2022/06/12 02:15:13;;;;;;;;;;;;;;;13.98;63.24;98528.84;6245851;23;19992;-80
2022/06/12 02:17:41;;;;;;;;;;;;;;;13.97;63.36;98506.50;6220162;23;20383;-82
2022/06/12 02:20:10;;;;;;;;;;;;;;;13.93;63.50;98512.38;6195094;23;19923;-80
2022/06/12 02:22:39;;;;;;;;;;;;;;;13.94;64.16;98530.16;6194908;23;19927;-82
2022/06/12 02:25:11;;;;;;;;;;;;;;;14.08;63.50;98518.78;6195278;23;19926;-76
2022/06/12 02:27:41;;;;;;;;;;;;;;;14.14;63.88;98523.50;6247476;23;19946;-89
2022/06/12 02:30:12;;;;;;;;;;;;;;;14.19;63.78;98518.47;6220336;23;20274;-84
2022/06/12 02:32:40;;;;;;;;;;;;;;;14.26;62.97;98515.97;6194871;23;20363;-81
2022/06/12 02:35:09;;;;;;;;;;;;;;;14.37;62.64;98520.16;6194718;23;19923;-77
2022/06/12 02:37:44;;;;;;;;;;;;;;;14.44;62.09;98518.47;6221557;23;19920;-81
2022/06/12 02:40:14;;;;;;;;;;;;;;;14.39;62.24;98526.22;6195132;23;19978;-84
2022/06/12 02:42:43;;;;;;;;;;;;;;;14.55;61.61;98515.50;6195698;23;19919;-81
2022/06/12 02:45:11;;;;;;;;;;;;;;;14.64;61.15;98516.34;6194253;23;20335;-82
2022/06/12 02:47:40;;;;;;;;;;;;;;;14.66;61.46;98522.38;6219921;23;20006;-82
2022/06/12 02:50:08;;;;;;;;;;;;;;;14.64;61.46;98530.63;6194656;23;20245;-80
2022/06/12 02:52:53;;;;;;;;;;;;;;;14.58;61.75;98524.06;6246367;23;19919;-79
2022/06/12 02:55:44;;;;;;;;;;;;;;;14.45;61.91;98530.94;6219104;23;19926;-78
2022/06/12 02:58:19;;;;;;;;;;;;;;;14.45;61.98;98525.56;6194694;23;19919;-79
2022/06/12 03:00:51;;;;;;;;;;;;;;;14.45;62.42;98523.72;6219877;23;19919;-80
2022/06/12 03:03:32;;;;;;;;;;;;;;;14.61;62.23;98528.28;6219334;23;19930;-79
2022/06/12 03:05:59;;;;;;;;;;;;;;;14.68;61.98;98526.59;6219354;23;20255;-81
2022/06/12 03:08:36;;;;;;;;;;;;;;;14.66;61.42;98523.22;6219860;23;19981;-79
2022/06/12 03:11:08;;;;;;;;;;;;;;;14.84;61.22;98530.28;6195004;23;19998;-79
2022/06/12 03:13:35;;;;;;;;;;;;;;;14.81;61.12;98532.28;6194628;23;19926;-80
2022/06/12 03:16:10;;;;;;;;;;;;;;;14.76;61.25;98537.34;6194645;23;19926;-78
2022/06/12 03:18:38;;;;;;;;;;;;;;;14.81;60.94;98532.28;6194422;23;20001;-77
2022/06/12 03:21:07;;;;;;;;;;;;;;;14.78;60.81;98532.66;6194410;23;20363;-79
2022/06/12 03:23:42;;;;;;;;;;;;;;;14.86;61.11;98544.41;6219411;23;19993;-79
2022/06/12 03:26:10;;;;;;;;;;;;;;;14.91;60.95;98531.28;6219586;23;19920;-80
2022/06/12 03:28:49;;;;;;;;;;;;;;;15.03;61.29;98538.00;6194221;23;19982;-78
2022/06/12 03:31:19;;;;;;;;;;;;;;;15.06;61.21;98534.97;6220066;23;20009;-83
2022/06/12 03:33:48;;;;;;;;;;;;;;;15.37;60.19;98528.81;6194112;23;19927;-81
2022/06/12 03:36:40;;;;;;;;;;;;;;;15.46;58.90;98536.72;6219549;23;20255;-81
2022/06/12 03:39:16;;;;;;;;;;;;;;;15.40;57.44;98541.94;6215135;23;19970;-79
2022/06/12 03:41:47;;;;;;;;;;;;;;;15.43;57.35;98530.84;6246305;23;19931;-79
2022/06/12 03:44:16;;;;;;;;;;;;;;;15.70;58.22;98538.50;6194007;23;19919;-80
2022/06/12 03:46:48;;;;;;;;;;;;;;;16.01;57.18;98540.34;6245101;23;20256;-79
2022/06/12 03:49:14;;;;;;;;;;;;;;;15.93;56.37;98529.63;6219616;23;19919;-80
2022/06/12 03:51:58;;;;;;;;;;;;;;;16.05;54.16;98530.06;6219345;23;20025;-80
2022/06/12 03:54:23;;;;;;;;;;;;;;;16.07;54.68;98533.44;6246651;23;19989;-79
2022/06/12 03:59:43;;;;;;;;;;;;;;;16.20;54.23;98521.03;6193901;23;19998;-80
2022/06/12 04:02:11;;;;;;;;;;;;;;;16.35;53.37;98526.50;6218591;23;19923;-78
2022/06/12 04:04:39;;;;;;;;;;;;;;;16.36;52.74;98530.03;6218568;23;19924;-79
2022/06/12 04:07:07;;;;;;;;;;;;;;;16.73;53.18;98516.59;6218912;23;20362;-79
2022/06/12 04:09:34;;;;;;;;;;;;;;;17.20;51.44;98525.44;6218791;23;19919;-79
2022/06/12 04:12:03;;;;;;;;;;;;;;;17.15;49.29;98528.72;6193609;23;19920;-78
2022/06/12 04:14:34;;;;;;;;;;;;;;;17.07;50.33;98520.66;6193992;23;19990;-81
2022/06/12 04:17:01;;;;;;;;;;;;;;;17.09;49.28;98524.03;6217600;23;19919;-79
2022/06/12 04:19:29;;;;;;;;;;;;;;;16.63;50.79;98520.56;6193171;23;20299;-79
2022/06/12 04:21:55;;;;;;;;;;;;;;;16.69;50.62;98526.06;6245187;23;19945;-79
2022/06/12 04:24:28;;;;;;;;;;;;;;;16.37;51.07;98524.47;6245864;23;20418;-78
2022/06/12 04:26:56;;;;;;;;;;;;;;;16.45;51.19;98526.25;6245710;23;20010;-78
2022/06/12 04:29:27;;;;;;;;;;;;;;;16.38;50.93;98530.69;6193368;23;19951;-77
2022/06/12 04:31:55;;;;;;;;;;;;;;;16.53;49.62;98523.50;6244527;23;19945;-78
2022/06/12 04:34:26;;;;;;;;;;;;;;;16.47;49.73;98524.22;6218884;23;20409;-80
2022/06/12 04:36:54;;;;;;;;;;;;;;;16.79;50.26;98511.50;6193823;23;19971;-79
2022/06/12 04:39:22;;;;;;;;;;;;;;;17.16;49.37;98519.59;6219143;23;19954;-78
2022/06/12 04:41:48;;;;;;;;;;;;;;;17.40;49.04;98501.41;6195301;23;19946;-83
2022/06/12 04:44:15;;;;;;;;;;;;;;;17.57;48.52;98521.00;6195183;23;19920;-78
2022/06/12 04:46:42;;;;;;;;;;;;;;;17.51;48.16;98522.56;6246587;23;19919;-80
2022/06/12 04:49:10;;;;;;;;;;;;;;;17.60;47.39;98532.25;6170483;23;19981;-79
2022/06/12 04:51:36;;;;;;;;;;;;;;;17.13;46.24;98528.03;6220126;23;19920;-77
2022/06/12 04:54:01;;;;;;;;;;;;;;;16.59;46.18;98528.19;6220070;23;19924;-78
2022/06/12 04:56:29;;;;;;;;;;;;;;;16.27;47.12;98526.56;6220491;23;19919;-79
2022/06/12 04:58:55;;;;;;;;;;;;;;;16.55;47.68;98520.59;6219571;23;19923;-78
2022/06/12 05:01:22;;;;;;;;;;;;;;;16.62;46.84;98533.19;6219299;23;19925;-79
2022/06/12 05:03:48;;;;;;;;;;;;;;;16.85;47.80;98526.97;6194765;23;20351;-77
2022/06/12 05:06:15;;;;;;;;;;;;;;;16.82;47.59;98521.94;6220017;23;20006;-78
2022/06/12 05:08:40;;;;;;;;;;;;;;;16.67;47.51;98525.41;6194784;23;19919;-78
2022/06/12 05:11:06;;;;;;;;;;;;;;;16.87;47.77;98535.72;6195000;23;19952;-77
2022/06/12 05:13:32;;;;;;;;;;;;;;;16.75;47.08;98554.22;6219855;23;19946;-77
2022/06/12 05:15:59;;;;;;;;;;;;;;;16.55;48.38;98529.56;6194880;23;19927;-79
2022/06/12 05:18:25;;;;;;;;;;;;;;;16.74;47.81;98536.34;6247506;23;19927;-80
2022/06/12 05:20:51;;;;;;;;;;;;;;;16.76;48.09;98531.59;6220842;23;19983;-79
2022/06/12 05:23:17;;;;;;;;;;;;;;;16.70;47.67;98543.94;6194997;23;20260;-78
2022/06/12 05:25:43;;;;;;;;;;;;;;;16.66;47.73;98550.72;6220452;23;19942;-79
2022/06/12 05:28:11;;;;;;;;;;;;;;;16.90;46.88;98541.59;6220503;23;20300;-79
2022/06/12 05:30:37;;;;;;;;;;;;;;;16.90;47.38;98538.06;6219632;23;19969;-76
2022/06/12 05:33:04;;;;;;;;;;;;;;;17.11;46.53;98540.03;6195325;23;19919;-81
2022/06/12 05:35:30;;;;;;;;;;;;;;;17.06;46.68;98540.59;6170248;23;19927;-77
2022/06/12 05:37:56;;;;;;;;;;;;;;;16.96;46.39;98543.59;6195070;23;19926;-79
2022/06/12 05:40:24;;;;;;;;;;;;;;;16.79;45.80;98552.00;6246418;23;20037;-76
2022/06/12 05:42:53;;;;;;;;;;;;;;;16.75;45.28;98554.22;6170115;23;20351;-79
2022/06/12 05:45:20;;;;;;;;;;;;;;;16.43;45.43;98560.66;6245848;23;19966;-77
2022/06/12 05:47:46;;;;;;;;;;;;;;;16.39;46.49;98557.47;6170207;23;19919;-77
2022/06/12 05:50:12;;;;;;;;;;;;;;;16.64;46.48;98549.22;6245392;23;20409;-76
2022/06/12 05:52:37;;;;;;;;;;;;;;;17.07;45.82;98553.06;6246482;23;20002;-76
2022/06/12 05:55:03;;;;;;;;;;;;;;;17.22;44.85;98551.22;6219849;23;19919;-75
2022/06/12 05:57:29;;;;;;;;;;;;;;;16.57;45.73;98567.97;6245887;23;20252;-77
2022/06/12 05:59:55;;;;;;;;;;;;;;;16.59;46.87;98555.16;6244546;23;19946;-77
2022/06/12 06:02:20;;;;;;;;;;;;;;;16.63;45.29;98567.28;6195037;23;19919;-78
2022/06/12 06:04:46;;;;;;;;;;;;;;;16.66;45.08;98566.03;6219252;23;19924;-77
2022/06/12 06:07:12;;;;;;;;;;;;;;;17.21;46.03;98565.75;6195065;23;20406;-78
2022/06/12 06:09:38;;;;;;;;;;;;;;;17.79;45.04;98557.03;6218865;23;19924;-77
2022/06/12 06:12:04;;;;;;;;;;;;;;;17.90;43.75;98553.84;6194627;23;19919;-79
2022/06/12 06:14:30;;;;;;;;;;;;;;;17.82;42.52;98546.69;6193882;23;19927;-77
2022/06/12 06:16:56;;;;;;;;;;;;;;;17.45;43.17;98559.28;6220547;23;19965;-79
2022/06/12 06:19:22;;;;;;;;;;;;;;;16.90;43.70;98554.25;6221412;23;19931;-77
2022/06/12 06:21:48;;;;;;;;;;;;;;;17.06;44.69;98558.66;6220428;23;19919;-76
2022/06/12 06:24:14;;;;;;;;;;;;;;;16.84;44.90;98557.69;6220436;23;19919;-78
2022/06/12 06:26:40;;;;;;;;;;;;;;;16.35;45.95;98553.47;6195771;23;19920;-77
2022/06/12 06:29:07;;;;;;;;;;;;;;;16.75;46.27;98555.06;6246734;23;20358;-77
2022/06/12 06:31:33;;;;;;;;;;;;;;;16.75;45.75;98560.44;6194376;23;19973;-77
2022/06/12 06:33:59;;;;;;;;;;;;;;;16.58;45.14;98566.94;6194453;23;19969;-77
2022/06/12 06:36:25;;;;;;;;;;;;;;;16.60;45.99;98562.22;6194146;23;19950;-78
2022/06/12 06:38:52;;;;;;;;;;;;;;;17.27;45.99;98557.97;6219851;23;19920;-78
2022/06/12 06:41:18;;;;;;;;;;;;;;;17.60;44.33;98553.88;6195454;23;19919;-82
2022/06/12 06:46:28;;;;;;;;;;;;;;;17.33;43.86;98565.31;6195792;23;19920;-79
2022/06/12 06:48:54;;;;;;;;;;;;;;;16.90;44.84;98573.16;6244349;23;20369;-78
2022/06/12 06:51:20;;;;;;;;;;;;;;;17.45;44.18;98566.53;6218824;23;20394;-81
2022/06/12 06:53:46;;;;;;;;;;;;;;;17.79;44.27;98557.91;6194471;23;19951;-78
2022/06/12 06:56:12;;;;;;;;;;;;;;;18.23;43.17;98565.09;6220120;23;19923;-82
2022/06/12 06:58:38;;;;;;;;;;;;;;;18.09;42.15;98579.47;6218666;23;19946;-79
2022/06/12 07:01:04;;;;;;;;;;;;;;;18.07;41.79;98570.72;6245881;23;20370;-79
2022/06/12 07:03:30;;;;;;;;;;;;;;;18.31;40.81;98577.66;6244190;23;19985;-78
2022/06/12 07:05:56;;;;;;;;;;;;;;;18.44;40.57;98573.22;6192026;23;19924;-79
2022/06/12 07:08:24;;;;;;;;;;;;;;;18.85;40.03;98553.69;6167316;23;19928;-80
2022/06/12 07:10:51;;;;;;;;;;;;;;;18.80;39.87;98574.22;6218957;23;19943;-79
2022/06/12 07:13:17;;;;;;;;;;;;;;;18.38;40.71;98589.38;6192198;23;19919;-79
2022/06/12 07:15:43;;;;;;;;;;;;;;;18.01;41.22;98569.59;6246346;23;20298;-79
2022/06/12 07:18:10;;;;;;;;;;;;;;;17.89;41.95;98573.81;6194427;23;20291;-80
2022/06/12 07:20:42;;;;;;;;;;;;;;;18.06;41.59;98586.13;6219974;23;19919;-78
2022/06/12 07:23:08;;;;;;;;;;;;;;;18.33;40.80;98586.44;6219832;23;20417;-78
2022/06/12 07:25:38;;;;;;;;;;;;;;;18.48;41.27;98570.97;6243888;23;19919;-79
2022/06/12 07:28:04;;;;;;;;;;;;;;;18.50;41.43;98566.19;6245560;23;19920;-80
2022/06/12 07:30:29;;;;;;;;;;;;;;;18.64;41.11;98581.56;6193594;23;19919;-79
2022/06/12 07:32:55;;;;;;;;;;;;;;;18.35;40.74;98596.00;6218797;23;19923;-79
2022/06/12 07:35:21;;;;;;;;;;;;;;;17.77;41.86;98596.97;6219663;23;19920;-84
2022/06/12 07:37:47;;;;;;;;;;;;;;;17.64;42.40;98587.63;6219178;23;20370;-77
2022/06/12 07:40:18;;;;;;;;;;;;;;;17.63;42.25;98580.50;6244686;23;19922;-79
2022/06/12 07:42:44;;;;;;;;;;;;;;;17.71;42.40;98580.44;6194667;23;19927;-77
2022/06/12 07:45:10;;;;;;;;;;;;;;;17.87;42.99;98575.88;6219216;23;19920;-77
2022/06/12 07:47:36;;;;;;;;;;;;;;;17.64;43.27;98579.50;6194987;23;20224;-76
2022/06/12 07:50:03;;;;;;;;;;;;;;;17.57;44.04;98596.66;6217948;23;19955;-78
2022/06/12 07:52:29;;;;;;;;;;;;;;;17.24;44.51;98587.00;6195549;23;20336;-77
2022/06/12 07:54:56;;;;;;;;;;;;;;;17.62;44.26;98589.66;6220114;23;20005;-78
2022/06/12 07:57:22;;;;;;;;;;;;;;;17.63;44.04;98583.22;6220463;23;19923;-77
2022/06/12 07:59:48;;;;;;;;;;;;;;;17.77;43.12;98586.16;6170605;23;19919;-77
2022/06/12 08:02:14;;;;;;;;;;;;;;;17.63;43.82;98593.19;6220208;23;19926;-78
2022/06/12 08:04:39;;;;;;;;;;;;;;;17.97;43.58;98598.03;6246107;23;19924;-77
2022/06/12 08:07:05;;;;;;;;;;;;;;;18.19;43.59;98583.56;6219239;23;19965;-77
2022/06/12 08:09:31;;;;;;;;;;;;;;;18.57;43.72;98593.34;6219484;23;19951;-76
2022/06/12 08:11:56;;;;;;;;;;;;;;;18.84;42.28;98594.47;6244228;23;19919;-77
2022/06/12 08:14:23;;;;;;;;;;;;;;;19.09;41.20;98584.91;6220226;23;20011;-77
2022/06/12 08:16:48;;;;;;;;;;;;;;;18.96;40.60;98598.34;6196666;23;19919;-78
2022/06/12 08:22:00;;;;;;;;;;;;;;;17.98;43.51;98609.69;6223923;23;20354;-79
2022/06/12 08:24:27;;;;;;;;;;;;;;;17.48;45.40;98606.69;6173153;23;19919;-77
2022/06/12 08:26:52;;;;;;;;;;;;;;;17.59;45.68;98600.81;6195949;23;19924;-77
2022/06/12 08:29:18;;;;;;;;;;;;;;;17.65;45.05;98610.06;6221509;23;19927;-79
2022/06/12 08:31:46;;;;;;;;;;;;;;;17.41;45.54;98603.03;6220968;23;19919;-79
2022/06/12 08:34:22;;;;;;;;;;;;;;;17.71;45.21;98599.38;6196128;23;20325;-78
2022/06/12 08:36:52;;;;;;;;;;;;;;;17.71;45.64;98593.97;6219683;23;19947;-78
2022/06/12 08:39:18;;;;;;;;;;;;;;;18.14;44.02;98594.13;6170002;23;19927;-77
2022/06/12 08:42:02;;;;;;;;;;;;;;;18.41;43.82;98594.44;6245957;23;19919;-77
2022/06/12 08:44:45;;;;;;;;;;;;;;;19.08;42.51;98582.41;6214229;23;19958;-77
2022/06/12 08:47:17;;;;;;;;;;;;;;;19.30;40.69;98599.47;6214365;23;19920;-78
2022/06/12 08:50:00;;;;;;;;;;;;;;;18.87;41.00;98603.03;6189590;23;20189;-79
2022/06/12 08:52:32;;;;;;;;;;;;;;;18.80;40.71;98577.78;6215518;23;19962;-80
2022/06/12 08:55:04;;;;;;;;;;;;;;;18.87;40.96;98597.63;6190732;23;19924;-80
2022/06/12 08:57:38;;;;;;;;;;;;;;;19.19;40.99;98597.28;6215827;23;20367;-77
2022/06/12 09:00:09;;;;;;;;;;;;;;;19.46;39.44;98592.91;6189648;23;19967;-77
2022/06/12 09:02:37;;;;;;;;;;;;;;;19.54;38.77;98590.88;6239679;23;19920;-76
2022/06/12 09:05:04;;;;;;;;;;;;;;;19.49;39.33;98587.94;6190656;23;19924;-78
2022/06/12 09:07:36;;;;;;;;;;;;;;;19.64;38.98;98615.78;6189759;23;19919;-77
2022/06/12 09:10:25;;;;;;;;;;;;;;;18.67;38.67;98608.25;6215789;23;19923;-78
2022/06/12 09:12:53;;;;;;;;;;;;;;;17.66;41.18;98609.88;6199449;23;20026;-77
2022/06/12 09:15:31;;;;;;;;;;;;;;;17.66;41.53;98620.69;6215352;23;19920;-76
2022/06/12 09:18:16;;;;;;;;;;;;;;;16.97;43.04;98612.75;6191044;23;19958;-78
2022/06/12 09:20:41;;;;;;;;;;;;;;;17.53;41.97;98611.56;6190403;23;19920;-77
2022/06/12 09:23:16;;;;;;;;;;;;;;;17.33;41.95;98616.63;6215980;23;19920;-78
2022/06/12 09:25:48;;;;;;;;;;;;;;;18.06;41.13;98607.75;6215833;23;20337;-77
2022/06/12 09:28:22;;;;;;;;;;;;;;;18.93;39.76;98617.69;6190276;23;19920;-78
2022/06/12 09:30:54;;;;;;;;;;;;;;;19.25;38.60;98601.91;6189638;23;20340;-78
2022/06/12 09:33:30;;;;;;;;;;;;;;;19.63;37.91;98611.41;6239423;23;19924;-78
2022/06/12 09:35:56;;;;;;;;;;;;;;;19.42;36.93;98614.97;6189613;23;19970;-78
2022/06/12 09:38:31;;;;;;;;;;;;;;;19.30;37.35;98610.31;6214494;23;19924;-78
2022/06/12 09:41:15;;;;;;;;;;;;;;;19.30;37.65;98615.72;6239606;23;19955;-78
2022/06/12 09:43:41;;;;;;;;;;;;;;;18.51;37.77;98630.16;6239586;23;19930;-77
2022/06/12 09:46:07;;;;;;;;;;;;;;;17.84;39.40;98627.63;6214150;23;19943;-77
2022/06/12 09:48:33;;;;;;;;;;;;;;;18.10;39.61;98624.44;6214023;23;20042;-77
2022/06/12 09:51:16;;;;;;;;;;;;;;;18.48;39.11;98627.81;6214485;23;19920;-78
2022/06/12 09:53:57;;;;;;;;;;;;;;;19.24;37.82;98627.34;6215159;23;19938;-77
2022/06/12 09:56:28;;;;;;;;;;;;;;;19.25;37.62;98634.44;6215139;23;19927;-78
2022/06/12 09:59:02;;;;;;;;;;;;;;;18.79;37.91;98615.88;6190584;23;20302;-78
2022/06/12 10:01:31;;;;;;;;;;;;;;;18.67;38.23;98632.59;6215203;23;19920;-78
2022/06/12 10:04:07;;;;;;;;;;;;;;;18.40;38.25;98646.88;6190943;23;19920;-78
2022/06/12 10:06:36;;;;;;;;;;;;;;;18.07;38.60;98639.16;6215325;23;20015;-77
2022/06/12 10:09:08;;;;;;;;;;;;;;;17.59;40.17;98627.84;6240511;23;19919;-78
2022/06/12 10:11:46;;;;;;;;;;;;;;;17.71;40.13;98625.53;6240407;23;19990;-78
2022/06/12 10:14:25;;;;;;;;;;;;;;;17.67;40.25;98633.16;6215348;23;19950;-77
2022/06/12 10:16:56;;;;;;;;;;;;;;;17.15;41.33;98636.72;6240168;23;19974;-78
2022/06/12 10:19:28;;;;;;;;;;;;;;;17.30;41.04;98622.41;6239930;23;19930;-78
2022/06/12 10:21:55;;;;;;;;;;;;;;;17.51;41.32;98625.25;6214662;23;19966;-79
2022/06/12 10:24:21;;;;;;;;;;;;;;;18.36;40.06;98618.53;6214652;23;19924;-76
2022/06/12 10:26:58;;;;;;;;;;;;;;;18.90;38.28;98626.19;6214830;23;19920;-76
2022/06/12 10:29:25;;;;;;;;;;;;;;;18.67;38.32;98624.47;6215070;23;19943;-78
2022/06/12 10:31:54;;;;;;;;;;;;;;;18.73;38.30;98627.47;6189661;23;19926;-77
2022/06/12 10:34:21;;;;;;;;;;;;;;;18.64;38.79;98611.31;6214463;23;19920;-77
2022/06/12 10:36:47;;;;;;;;;;;;;;;18.58;38.17;98617.53;6189638;23;19919;-77
2022/06/12 10:39:23;;;;;;;;;;;;;;;18.34;39.17;98629.50;6216279;23;20315;-77
2022/06/12 10:41:51;;;;;;;;;;;;;;;18.14;39.37;98621.16;6240112;23;19920;-77
2022/06/12 10:44:37;;;;;;;;;;;;;;;18.11;39.51;98621.53;6188928;23;19958;-77
2022/06/12 10:47:15;;;;;;;;;;;;;;;18.27;39.92;98635.88;6238621;23;20256;-77
2022/06/12 10:49:41;;;;;;;;;;;;;;;18.59;39.30;98627.31;6213455;23;19919;-78
2022/06/12 10:52:12;;;;;;;;;;;;;;;19.03;38.84;98625.47;6213362;23;20348;-78
2022/06/12 10:54:39;;;;;;;;;;;;;;;18.96;38.78;98625.44;6213038;23;19955;-78
2022/06/12 10:57:19;;;;;;;;;;;;;;;18.59;39.04;98624.59;6188192;23;20324;-78
2022/06/12 11:00:04;;;;;;;;;;;;;;;18.60;39.18;98634.41;6188384;23;20006;-78
2022/06/12 11:02:49;;;;;;;;;;;;;;;18.11;40.11;98626.94;6213353;23;19998;-78
2022/06/12 11:05:32;;;;;;;;;;;;;;;18.15;39.73;98617.41;6162947;23;19924;-78
2022/06/12 11:08:04;;;;;;;;;;;;;;;18.04;40.01;98626.03;6213008;23;19920;-78
2022/06/12 11:10:40;;;;;;;;;;;;;;;18.02;40.10;98617.28;6188295;23;19999;-78
2022/06/12 11:13:25;;;;;;;;;;;;;;;18.05;40.67;98619.56;6187976;23;19920;-78
2022/06/12 11:15:57;;;;;;;;;;;;;;;18.17;40.46;98619.97;6187785;23;20047;-77
2022/06/12 11:18:39;;;;;;;;;;;;;;;18.13;40.52;98619.50;6187953;23;19947;-78
2022/06/12 11:21:05;;;;;;;;;;;;;;;18.01;40.98;98620.97;6187897;23;19926;-78
2022/06/12 11:23:49;;;;;;;;;;;;;;;18.02;40.74;98605.63;6188110;23;19920;-77
2022/06/12 11:26:24;;;;;;;;;;;;;;;17.68;41.29;98620.50;6188642;23;19919;-79
2022/06/12 11:28:56;;;;;;;;;;;;;;;17.42;41.64;98607.44;6188428;23;19920;-77
2022/06/12 11:31:34;;;;;;;;;;;;;;;17.17;42.93;98621.16;6217524;23;19966;-80
2022/06/12 11:34:07;;;;;;;;;;;;;;;17.14;42.93;98624.22;6215419;23;19919;-78
2022/06/12 11:36:43;;;;;;;;;;;;;;;17.18;42.64;98630.94;6238944;23;19924;-77
2022/06/12 11:39:20;;;;;;;;;;;;;;;17.01;42.82;98621.31;6213474;23;20328;-82
2022/06/12 11:41:55;;;;;;;;;;;;;;;17.14;42.61;98623.41;6243073;23;19920;-81
2022/06/12 11:44:24;;;;;;;;;;;;;;;17.11;43.06;98629.16;6235560;23;20002;-82
2022/06/12 11:47:02;;;;;;;;;;;;;;;16.71;43.73;98623.88;6244980;23;20284;-83
2022/06/12 11:49:50;;;;;;;;;;;;;;;16.78;43.48;98621.34;6194940;23;20336;-79
2022/06/12 11:52:28;;;;;;;;;;;;;;;16.39;44.26;98634.88;6245607;23;19924;-79
2022/06/12 11:55:13;;;;;;;;;;;;;;;15.97;45.18;98630.69;6194178;23;20310;-83
2022/06/12 11:57:58;;;;;;;;;;;;;;;15.77;46.12;98641.88;6219336;23;19920;-81
2022/06/12 12:00:32;;;;;;;;;;;;;;;15.66;46.16;98628.78;6245508;23;19925;-78
2022/06/12 12:02:57;;;;;;;;;;;;;;;15.97;45.45;98625.28;6218966;23;19920;-82
2022/06/12 12:05:45;;;;;;;;;;;;;;;16.41;45.50;98632.84;6218681;23;19977;-80
2022/06/12 12:08:11;;;;;;;;;;;;;;;16.77;43.88;98626.91;6193889;23;19921;-80
2022/06/12 12:10:43;;;;;;;;;;;;;;;17.08;43.90;98627.69;6219037;23;20002;-78
2022/06/12 12:13:12;;;;;;;;;;;;;;;17.67;42.88;98629.63;6219542;23;19942;-79
2022/06/12 12:15:43;;;;;;;;;;;;;;;18.02;41.86;98632.66;6193935;23;20343;-85
2022/06/12 12:18:15;;;;;;;;;;;;;;;17.94;42.09;98630.88;6193904;23;19969;-88
2022/06/12 12:20:43;;;;;;;;;;;;;;;18.05;41.30;98627.69;6220330;23;19939;-78
2022/06/12 12:23:11;;;;;;;;;;;;;;;18.08;41.62;98615.66;6244584;23;19923;-78
2022/06/12 12:25:42;;;;;;;;;;;;;;;18.14;41.20;98628.44;6218710;23;20332;-81
2022/06/12 12:28:31;;;;;;;;;;;;;;;18.27;41.56;98622.34;6244494;23;19969;-80
2022/06/12 12:31:02;;;;;;;;;;;;;;;18.57;40.39;98626.66;6229595;23;19926;-78
2022/06/12 12:33:28;;;;;;;;;;;;;;;18.64;40.12;98619.44;6219526;23;19954;-78
2022/06/12 12:41:39;;;;;;;;;;;;;;;17.90;42.51;98626.84;6218235;23;19930;-79
2022/06/12 12:44:04;;;;;;;;;;;;;;;17.80;42.56;98629.88;6218568;23;20370;-79
2022/06/12 12:46:39;;;;;;;;;;;;;;;17.62;43.43;98634.75;6218730;23;19919;-81
2022/06/12 12:49:05;;;;;;;;;;;;;;;17.93;42.62;98629.19;6219005;23;20002;-79
2022/06/12 12:51:33;;;;;;;;;;;;;;;17.92;42.92;98635.63;6217463;23;19954;-82
2022/06/12 12:54:10;;;;;;;;;;;;;;;17.96;42.54;98637.78;6193594;23;19920;-81
2022/06/12 12:56:39;;;;;;;;;;;;;;;17.61;43.11;98643.91;6218488;23;19920;-79
2022/06/12 12:59:07;;;;;;;;;;;;;;;17.32;43.51;98647.38;6168192;23;20327;-79
2022/06/12 13:01:37;;;;;;;;;;;;;;;17.14;43.99;98645.00;6192602;23;19923;-78
2022/06/12 13:04:23;;;;;;;;;;;;;;;16.75;44.34;98651.38;6219818;23;19927;-77
2022/06/12 13:06:52;;;;;;;;;;;;;;;16.53;45.27;98647.59;6219548;23;19931;-79
2022/06/12 13:09:46;;;;;;;;;;;;;;;16.44;45.74;98656.78;6219501;23;19969;-79
2022/06/12 13:12:11;;;;;;;;;;;;;;;16.19;46.21;98648.78;6194869;23;20294;-79
2022/06/12 13:14:40;;;;;;;;;;;;;;;16.16;47.03;98641.03;6194982;23;19994;-80
2022/06/12 13:17:12;;;;;;;;;;;;;;;16.00;47.04;98649.22;6219807;23;19920;-80
2022/06/12 13:20:01;;;;;;;;;;;;;;;15.74;47.77;98644.91;6219885;23;19926;-80
2022/06/12 13:22:28;;;;;;;;;;;;;;;15.56;48.13;98649.63;6224943;23;19919;-80
2022/06/12 13:24:59;;;;;;;;;;;;;;;15.36;48.26;98642.94;6219510;23;20017;-80